sensor_id;sensor_type;location;lat;lon;timestamp;pressure;altitude;pressure_sealevel;temperature;humidity
12781;BME280;6454;43.304;24.344;2023-02-22T00:00:11;100154.06;;;11.57;49.00
12781;BME280;6454;43.304;24.344;2023-02-22T00:02:45;100189.66;;;11.80;49.08
12781;BME280;6454;43.304;24.344;2023-02-22T00:05:13;100186.94;;;11.80;49.04
12781;BME280;6454;43.304;24.344;2023-02-22T00:07:42;100192.81;;;11.87;49.14
12781;BME280;6454;43.304;24.344;2023-02-22T00:10:09;100162.34;;;11.71;48.66
12781;BME280;6454;43.304;24.344;2023-02-22T00:12:40;100188.53;;;11.99;48.75
12781;BME280;6454;43.304;24.344;2023-02-22T00:15:08;100160.50;;;11.85;48.61
12781;BME280;6454;43.304;24.344;2023-02-22T00:17:37;100187.22;;;12.15;48.35
12781;BME280;6454;43.304;24.344;2023-02-22T00:20:05;100189.88;;;12.20;48.28
12781;BME280;6454;43.304;24.344;2023-02-22T00:22:32;100165.94;;;12.04;48.19
12781;BME280;6454;43.304;24.344;2023-02-22T00:24:59;100187.16;;;12.20;48.43
12781;BME280;6454;43.304;24.344;2023-02-22T00:27:26;100189.56;;;12.22;48.65
12781;BME280;6454;43.304;24.344;2023-02-22T00:29:54;100190.69;;;12.21;48.34
12781;BME280;6454;43.304;24.344;2023-02-22T00:32:21;100178.41;;;12.05;48.88
12781;BME280;6454;43.304;24.344;2023-02-22T00:34:51;100085.22;;;11.48;48.75
12781;BME280;6454;43.304;24.344;2023-02-22T00:37:18;100190.34;;;12.09;48.88
12781;BME280;6454;43.304;24.344;2023-02-22T00:39:46;100184.66;;;12.05;49.18
12781;BME280;6454;43.304;24.344;2023-02-22T00:42:13;100185.03;;;11.99;48.94
12781;BME280;6454;43.304;24.344;2023-02-22T00:44:39;100191.50;;;12.03;49.08
12781;BME280;6454;43.304;24.344;2023-02-22T00:47:08;100187.69;;;12.04;49.09
12781;BME280;6454;43.304;24.344;2023-02-22T00:49:35;100194.44;;;12.06;49.02
12781;BME280;6454;43.304;24.344;2023-02-22T00:52:03;100191.81;;;12.01;49.03
12781;BME280;6454;43.304;24.344;2023-02-22T00:54:30;100191.06;;;11.96;49.28
12781;BME280;6454;43.304;24.344;2023-02-22T00:56:57;100198.97;;;11.92;49.56
12781;BME280;6454;43.304;24.344;2023-02-22T00:59:23;100194.06;;;11.94;49.58
12781;BME280;6454;43.304;24.344;2023-02-22T01:01:51;100198.84;;;11.84;49.58
12781;BME280;6454;43.304;24.344;2023-02-22T01:04:20;100189.66;;;11.80;49.84
12781;BME280;6454;43.304;24.344;2023-02-22T01:06:46;100188.13;;;11.74;50.15
12781;BME280;6454;43.304;24.344;2023-02-22T01:09:13;100186.31;;;11.64;50.50
12781;BME280;6454;43.304;24.344;2023-02-22T01:11:40;100179.97;;;11.50;50.73
12781;BME280;6454;43.304;24.344;2023-02-22T01:14:07;100180.16;;;11.35;51.32
12781;BME280;6454;43.304;24.344;2023-02-22T01:16:36;100176.69;;;11.29;51.56
12781;BME280;6454;43.304;24.344;2023-02-22T01:19:03;100176.31;;;11.17;51.61
12781;BME280;6454;43.304;24.344;2023-02-22T01:21:32;100170.22;;;11.07;51.98
12781;BME280;6454;43.304;24.344;2023-02-22T01:23:58;100182.00;;;10.92;52.33
12781;BME280;6454;43.304;24.344;2023-02-22T01:26:25;100171.47;;;10.90;52.21
12781;BME280;6454;43.304;24.344;2023-02-22T01:28:52;100172.03;;;10.87;52.43
12781;BME280;6454;43.304;24.344;2023-02-22T01:31:19;100167.47;;;10.83;52.68
12781;BME280;6454;43.304;24.344;2023-02-22T01:33:48;100177.00;;;10.80;53.46
12781;BME280;6454;43.304;24.344;2023-02-22T01:36:15;100170.13;;;10.88;53.34
12781;BME280;6454;43.304;24.344;2023-02-22T01:38:44;100167.88;;;10.95;53.25
12781;BME280;6454;43.304;24.344;2023-02-22T01:41:11;100160.78;;;10.99;53.39
12781;BME280;6454;43.304;24.344;2023-02-22T01:43:42;100175.34;;;11.08;53.15
12781;BME280;6454;43.304;24.344;2023-02-22T01:46:20;100166.63;;;11.11;52.97
12781;BME280;6454;43.304;24.344;2023-02-22T01:48:50;100172.03;;;11.11;53.27
12781;BME280;6454;43.304;24.344;2023-02-22T01:51:22;100169.91;;;11.08;53.14
12781;BME280;6454;43.304;24.344;2023-02-22T01:53:54;100165.09;;;11.00;53.45
12781;BME280;6454;43.304;24.344;2023-02-22T01:56:24;100168.28;;;10.83;53.78
12781;BME280;6454;43.304;24.344;2023-02-22T01:58:54;100176.47;;;10.78;54.29
12781;BME280;6454;43.304;24.344;2023-02-22T02:01:24;100178.03;;;10.56;54.85
12781;BME280;6454;43.304;24.344;2023-02-22T02:03:55;100173.09;;;10.63;54.70
12781;BME280;6454;43.304;24.344;2023-02-22T02:06:24;100179.44;;;10.53;54.69
12781;BME280;6454;43.304;24.344;2023-02-22T02:08:58;100173.94;;;10.29;55.00
12781;BME280;6454;43.304;24.344;2023-02-22T02:11:28;100176.97;;;10.23;55.02
12781;BME280;6454;43.304;24.344;2023-02-22T02:13:56;100177.81;;;10.18;55.37
12781;BME280;6454;43.304;24.344;2023-02-22T02:16:26;100179.72;;;10.18;54.95
12781;BME280;6454;43.304;24.344;2023-02-22T02:18:55;100182.19;;;10.14;55.03
12781;BME280;6454;43.304;24.344;2023-02-22T02:21:39;100079.75;;;9.39;56.11
12781;BME280;6454;43.304;24.344;2023-02-22T02:24:28;100192.00;;;10.00;56.39
12781;BME280;6454;43.304;24.344;2023-02-22T02:27:09;100191.75;;;10.02;56.50
12781;BME280;6454;43.304;24.344;2023-02-22T02:32:50;100190.34;;;9.60;57.41
12781;BME280;6454;43.304;24.344;2023-02-22T02:35:24;100189.56;;;9.55;57.69
12781;BME280;6454;43.304;24.344;2023-02-22T02:37:57;100197.19;;;9.48;58.11
12781;BME280;6454;43.304;24.344;2023-02-22T02:40:32;100195.59;;;9.42;57.76
12781;BME280;6454;43.304;24.344;2023-02-22T02:43:06;100199.72;;;9.24;58.20
12781;BME280;6454;43.304;24.344;2023-02-22T02:45:40;100197.59;;;9.16;58.47
12781;BME280;6454;43.304;24.344;2023-02-22T02:48:11;100198.66;;;9.10;58.38
12781;BME280;6454;43.304;24.344;2023-02-22T02:50:42;100191.19;;;8.87;58.79
12781;BME280;6454;43.304;24.344;2023-02-22T02:53:12;100190.69;;;8.70;59.09
12781;BME280;6454;43.304;24.344;2023-02-22T02:55:41;100189.34;;;8.57;59.19
12781;BME280;6454;43.304;24.344;2023-02-22T02:58:17;100192.88;;;8.43;59.27
12781;BME280;6454;43.304;24.344;2023-02-22T03:00:44;100159.84;;;8.15;59.84
12781;BME280;6454;43.304;24.344;2023-02-22T03:03:27;100191.75;;;8.28;60.09
12781;BME280;6454;43.304;24.344;2023-02-22T03:06:10;100194.72;;;8.17;60.54
12781;BME280;6454;43.304;24.344;2023-02-22T03:08:42;100194.19;;;8.20;60.30
12781;BME280;6454;43.304;24.344;2023-02-22T03:11:14;100197.41;;;8.12;60.87
12781;BME280;6454;43.304;24.344;2023-02-22T03:13:49;100205.22;;;7.93;61.46
12781;BME280;6454;43.304;24.344;2023-02-22T03:16:22;100197.34;;;7.82;61.69
12781;BME280;6454;43.304;24.344;2023-02-22T03:19:03;100204.38;;;7.72;61.67
12781;BME280;6454;43.304;24.344;2023-02-22T03:21:37;100204.38;;;7.72;61.96
12781;BME280;6454;43.304;24.344;2023-02-22T03:24:11;100199.47;;;7.64;61.58
12781;BME280;6454;43.304;24.344;2023-02-22T03:26:53;100203.22;;;7.53;62.36
12781;BME280;6454;43.304;24.344;2023-02-22T03:29:25;100190.78;;;7.47;62.13
12781;BME280;6454;43.304;24.344;2023-02-22T03:31:55;100188.63;;;7.44;62.26
12781;BME280;6454;43.304;24.344;2023-02-22T03:34:32;100189.94;;;7.37;62.18
12781;BME280;6454;43.304;24.344;2023-02-22T03:37:02;100196.06;;;7.17;62.65
12781;BME280;6454;43.304;24.344;2023-02-22T03:39:34;100179.47;;;6.93;63.19
12781;BME280;6454;43.304;24.344;2023-02-22T03:42:05;100160.84;;;6.87;63.47
12781;BME280;6454;43.304;24.344;2023-02-22T03:44:37;100196.53;;;7.04;63.71
12781;BME280;6454;43.304;24.344;2023-02-22T03:47:08;100193.88;;;7.09;63.48
12781;BME280;6454;43.304;24.344;2023-02-22T03:49:45;100191.50;;;7.18;63.44
12781;BME280;6454;43.304;24.344;2023-02-22T03:52:14;100195.53;;;7.20;63.33
12781;BME280;6454;43.304;24.344;2023-02-22T03:54:42;100194.22;;;7.28;63.58
12781;BME280;6454;43.304;24.344;2023-02-22T03:57:13;100195.06;;;7.38;63.62
12781;BME280;6454;43.304;24.344;2023-02-22T03:59:42;100192.72;;;7.57;63.36
12781;BME280;6454;43.304;24.344;2023-02-22T04:02:09;100190.59;;;7.74;62.51
12781;BME280;6454;43.304;24.344;2023-02-22T04:04:36;100199.25;;;7.86;62.32
12781;BME280;6454;43.304;24.344;2023-02-22T04:07:04;100186.84;;;8.05;61.48
12781;BME280;6454;43.304;24.344;2023-02-22T04:09:31;100189.31;;;8.12;61.25
12781;BME280;6454;43.304;24.344;2023-02-22T04:11:58;100189.84;;;8.19;60.91
12781;BME280;6454;43.304;24.344;2023-02-22T04:14:25;100197.47;;;8.32;60.68
12781;BME280;6454;43.304;24.344;2023-02-22T04:16:51;100192.31;;;8.35;60.56
12781;BME280;6454;43.304;24.344;2023-02-22T04:19:18;100199.63;;;8.40;60.29
12781;BME280;6454;43.304;24.344;2023-02-22T04:21:45;100198.00;;;8.49;59.96
12781;BME280;6454;43.304;24.344;2023-02-22T04:24:13;100195.53;;;8.53;59.25
12781;BME280;6454;43.304;24.344;2023-02-22T04:26:40;100189.34;;;8.52;59.04
12781;BME280;6454;43.304;24.344;2023-02-22T04:29:07;100190.69;;;8.65;59.03
12781;BME280;6454;43.304;24.344;2023-02-22T04:31:34;100159.03;;;8.45;58.83
12781;BME280;6454;43.304;24.344;2023-02-22T04:34:01;100192.81;;;8.78;58.29
12781;BME280;6454;43.304;24.344;2023-02-22T04:36:28;100195.25;;;8.84;58.23
12781;BME280;6454;43.304;24.344;2023-02-22T04:38:56;100198.19;;;8.83;57.86
12781;BME280;6454;43.304;24.344;2023-02-22T04:41:24;100192.25;;;8.91;58.03
12781;BME280;6454;43.304;24.344;2023-02-22T04:43:51;100193.06;;;8.86;57.68
12781;BME280;6454;43.304;24.344;2023-02-22T04:46:18;100206.31;;;8.88;57.82
12781;BME280;6454;43.304;24.344;2023-02-22T04:48:44;100150.38;;;8.53;57.86
12781;BME280;6454;43.304;24.344;2023-02-22T04:51:11;100200.13;;;8.87;58.21
12781;BME280;6454;43.304;24.344;2023-02-22T04:53:38;100195.25;;;8.84;58.05
12781;BME280;6454;43.304;24.344;2023-02-22T04:56:05;100190.38;;;8.81;58.13
12781;BME280;6454;43.304;24.344;2023-02-22T04:58:33;100200.66;;;8.84;57.92
12781;BME280;6454;43.304;24.344;2023-02-22T05:01:00;100194.97;;;8.86;57.84
12781;BME280;6454;43.304;24.344;2023-02-22T05:03:27;100186.59;;;8.77;57.71
12781;BME280;6454;43.304;24.344;2023-02-22T05:05:54;100206.31;;;8.93;57.58
12781;BME280;6454;43.304;24.344;2023-02-22T05:08:21;100215.22;;;8.98;57.43
12781;BME280;6454;43.304;24.344;2023-02-22T05:10:47;100217.38;;;9.01;57.31
12781;BME280;6454;43.304;24.344;2023-02-22T05:13:14;100226.88;;;8.94;57.32
12781;BME280;6454;43.304;24.344;2023-02-22T05:15:42;100219.56;;;8.89;57.83
12781;BME280;6454;43.304;24.344;2023-02-22T05:18:09;100226.34;;;8.87;57.65
12781;BME280;6454;43.304;24.344;2023-02-22T05:20:36;100222.53;;;8.83;57.93
12781;BME280;6454;43.304;24.344;2023-02-22T05:23:03;100228.78;;;8.73;58.24
12781;BME280;6454;43.304;24.344;2023-02-22T05:25:31;100217.44;;;8.71;58.56
12781;BME280;6454;43.304;24.344;2023-02-22T05:28:00;100227.44;;;8.71;58.98
12781;BME280;6454;43.304;24.344;2023-02-22T05:30:30;100233.13;;;8.69;58.78
12781;BME280;6454;43.304;24.344;2023-02-22T05:33:00;100239.06;;;8.61;58.94
12781;BME280;6454;43.304;24.344;2023-02-22T05:35:29;100240.16;;;8.60;59.37
12781;BME280;6454;43.304;24.344;2023-02-22T05:37:56;100238.00;;;8.67;59.09
12781;BME280;6454;43.304;24.344;2023-02-22T05:40:25;100239.34;;;8.75;58.97
12781;BME280;6454;43.304;24.344;2023-02-22T05:42:52;100242.28;;;8.83;58.87
12781;BME280;6454;43.304;24.344;2023-02-22T05:45:21;100248.81;;;8.87;58.88
12781;BME280;6454;43.304;24.344;2023-02-22T05:47:49;100252.28;;;8.93;58.74
12781;BME280;6454;43.304;24.344;2023-02-22T05:50:18;100249.56;;;8.98;58.74
12781;BME280;6454;43.304;24.344;2023-02-22T05:52:46;100250.38;;;9.08;58.66
12781;BME280;6454;43.304;24.344;2023-02-22T05:55:16;100260.34;;;9.18;58.49
12781;BME280;6454;43.304;24.344;2023-02-22T05:57:43;100231.44;;;9.08;58.07
12781;BME280;6454;43.304;24.344;2023-02-22T06:00:15;100269.75;;;9.51;57.59
12781;BME280;6454;43.304;24.344;2023-02-22T06:02:42;100273.50;;;9.60;57.18
12781;BME280;6454;43.304;24.344;2023-02-22T06:05:09;100274.25;;;9.76;57.23
12781;BME280;6454;43.304;24.344;2023-02-22T06:07:37;100276.06;;;9.90;57.05
12781;BME280;6454;43.304;24.344;2023-02-22T06:10:04;100279.22;;;10.07;56.99
12781;BME280;6454;43.304;24.344;2023-02-22T06:12:31;100279.22;;;10.12;57.41
12781;BME280;6454;43.304;24.344;2023-02-22T06:14:58;100275.13;;;10.20;57.00
12781;BME280;6454;43.304;24.344;2023-02-22T06:17:25;100282.03;;;10.41;56.36
12781;BME280;6454;43.304;24.344;2023-02-22T06:19:51;100290.38;;;10.50;56.44
12781;BME280;6454;43.304;24.344;2023-02-22T06:22:18;100278.38;;;10.61;55.59
12781;BME280;6454;43.304;24.344;2023-02-22T06:24:47;100286.94;;;10.73;55.56
12781;BME280;6454;43.304;24.344;2023-02-22T06:27:13;100288.50;;;10.84;55.43
12781;BME280;6454;43.304;24.344;2023-02-22T06:29:44;100271.63;;;10.87;55.33
12781;BME280;6454;43.304;24.344;2023-02-22T06:32:12;100281.00;;;10.99;55.26
12781;BME280;6454;43.304;24.344;2023-02-22T06:34:39;100284.69;;;11.14;54.60
12781;BME280;6454;43.304;24.344;2023-02-22T06:37:06;100282.69;;;11.24;54.78
12781;BME280;6454;43.304;24.344;2023-02-22T06:39:33;100283.16;;;11.31;54.63
12781;BME280;6454;43.304;24.344;2023-02-22T06:42:01;100272.38;;;11.45;54.52
12781;BME280;6454;43.304;24.344;2023-02-22T06:44:28;100281.13;;;11.65;54.62
12781;BME280;6454;43.304;24.344;2023-02-22T06:46:55;100280.72;;;11.77;53.72
12781;BME280;6454;43.304;24.344;2023-02-22T06:49:24;100281.34;;;11.93;53.59
12781;BME280;6454;43.304;24.344;2023-02-22T06:51:52;100281.66;;;12.10;52.96
12781;BME280;6454;43.304;24.344;2023-02-22T06:54:19;100285.25;;;12.24;53.01
12781;BME280;6454;43.304;24.344;2023-02-22T06:56:45;100285.50;;;12.27;53.24
12781;BME280;6454;43.304;24.344;2023-02-22T06:59:15;100293.44;;;12.43;53.00
12781;BME280;6454;43.304;24.344;2023-02-22T07:01:42;100297.91;;;12.52;52.41
12781;BME280;6454;43.304;24.344;2023-02-22T07:04:09;100304.59;;;12.60;52.16
12781;BME280;6454;43.304;24.344;2023-02-22T07:06:36;100301.22;;;12.68;52.24
12781;BME280;6454;43.304;24.344;2023-02-22T07:09:03;100238.19;;;12.42;51.48
12781;BME280;6454;43.304;24.344;2023-02-22T07:11:30;100301.53;;;12.99;51.21
12781;BME280;6454;43.304;24.344;2023-02-22T07:13:57;100306.81;;;13.09;50.80
12781;BME280;6454;43.304;24.344;2023-02-22T07:16:25;100319.91;;;13.07;50.42
12781;BME280;6454;43.304;24.344;2023-02-22T07:18:52;100309.88;;;12.88;50.81
12781;BME280;6454;43.304;24.344;2023-02-22T07:21:19;100308.75;;;12.89;51.09
12781;BME280;6454;43.304;24.344;2023-02-22T07:23:50;100314.31;;;12.98;51.70
12781;BME280;6454;43.304;24.344;2023-02-22T07:26:17;100301.00;;;12.97;51.11
12781;BME280;6454;43.304;24.344;2023-02-22T07:28:44;100314.50;;;13.20;51.14
12781;BME280;6454;43.304;24.344;2023-02-22T07:31:11;100313.81;;;13.28;50.24
12781;BME280;6454;43.304;24.344;2023-02-22T07:33:40;100313.25;;;13.45;49.69
12781;BME280;6454;43.304;24.344;2023-02-22T07:36:07;100306.28;;;13.52;49.48
12781;BME280;6454;43.304;24.344;2023-02-22T07:38:34;100306.78;;;13.54;50.12
12781;BME280;6454;43.304;24.344;2023-02-22T07:41:01;100311.72;;;13.66;50.42
12781;BME280;6454;43.304;24.344;2023-02-22T07:43:28;100308.78;;;13.76;50.33
12781;BME280;6454;43.304;24.344;2023-02-22T07:45:57;100308.47;;;13.91;49.25
12781;BME280;6454;43.304;24.344;2023-02-22T07:48:26;100303.94;;;14.00;49.39
12781;BME280;6454;43.304;24.344;2023-02-22T07:50:55;100305.44;;;14.06;48.29
12781;BME280;6454;43.304;24.344;2023-02-22T07:53:24;100300.38;;;14.13;49.15
12781;BME280;6454;43.304;24.344;2023-02-22T07:55:51;100309.63;;;14.26;47.82
12781;BME280;6454;43.304;24.344;2023-02-22T07:58:19;100307.13;;;14.30;47.70
12781;BME280;6454;43.304;24.344;2023-02-22T08:00:46;100299.34;;;14.37;48.17
12781;BME280;6454;43.304;24.344;2023-02-22T08:03:15;100297.69;;;14.49;48.56
12781;BME280;6454;43.304;24.344;2023-02-22T08:05:45;100270.47;;;14.36;48.23
12781;BME280;6454;43.304;24.344;2023-02-22T08:08:14;100293.19;;;14.67;47.80
12781;BME280;6454;43.304;24.344;2023-02-22T08:10:41;100292.31;;;14.80;48.05
12781;BME280;6454;43.304;24.344;2023-02-22T08:13:09;100280.81;;;14.69;48.70
12781;BME280;6454;43.304;24.344;2023-02-22T08:15:37;100288.31;;;14.86;48.71
12781;BME280;6454;43.304;24.344;2023-02-22T08:18:07;100290.06;;;15.04;48.26
12781;BME280;6454;43.304;24.344;2023-02-22T08:20:35;100283.22;;;15.15;47.51
12781;BME280;6454;43.304;24.344;2023-02-22T08:23:03;100297.38;;;15.17;47.75
12781;BME280;6454;43.304;24.344;2023-02-22T08:25:31;100290.63;;;15.23;48.21
12781;BME280;6454;43.304;24.344;2023-02-22T08:28:00;100287.00;;;15.28;47.77
12781;BME280;6454;43.304;24.344;2023-02-22T08:30:28;100283.34;;;15.41;48.56
12781;BME280;6454;43.304;24.344;2023-02-22T08:32:56;100282.47;;;15.54;48.11
12781;BME280;6454;43.304;24.344;2023-02-22T08:35:23;100284.72;;;15.61;48.19
12781;BME280;6454;43.304;24.344;2023-02-22T08:37:53;100280.09;;;15.70;46.61
12781;BME280;6454;43.304;24.344;2023-02-22T08:40:22;100278.34;;;15.74;46.75
12781;BME280;6454;43.304;24.344;2023-02-22T08:42:51;100293.00;;;15.78;47.35
12781;BME280;6454;43.304;24.344;2023-02-22T08:45:18;100280.47;;;15.85;46.85
12781;BME280;6454;43.304;24.344;2023-02-22T08:47:44;100283.06;;;15.90;46.35
12781;BME280;6454;43.304;24.344;2023-02-22T08:50:16;100279.84;;;15.97;46.51
12781;BME280;6454;43.304;24.344;2023-02-22T08:52:43;100279.06;;;16.05;46.90
12781;BME280;6454;43.304;24.344;2023-02-22T08:55:10;100268.13;;;16.05;46.16
12781;BME280;6454;43.304;24.344;2023-02-22T08:57:37;100275.19;;;16.06;45.86
12781;BME280;6454;43.304;24.344;2023-02-22T09:00:06;100268.94;;;16.14;45.98
12781;BME280;6454;43.304;24.344;2023-02-22T09:02:33;100280.03;;;16.09;46.02
12781;BME280;6454;43.304;24.344;2023-02-22T09:05:00;100273.78;;;16.26;46.01
12781;BME280;6454;43.304;24.344;2023-02-22T09:07:27;100270.09;;;16.30;46.26
12781;BME280;6454;43.304;24.344;2023-02-22T09:09:53;100274.28;;;16.36;46.51
12781;BME280;6454;43.304;24.344;2023-02-22T09:12:20;100272.69;;;16.52;45.61
12781;BME280;6454;43.304;24.344;2023-02-22T09:14:47;100269.47;;;16.59;45.88
12781;BME280;6454;43.304;24.344;2023-02-22T09:17:15;100268.81;;;16.62;45.28
12781;BME280;6454;43.304;24.344;2023-02-22T09:19:42;100276.06;;;16.66;44.64
12781;BME280;6454;43.304;24.344;2023-02-22T09:22:10;100236.09;;;16.48;44.79
12781;BME280;6454;43.304;24.344;2023-02-22T09:24:36;100266.53;;;16.81;44.88
12781;BME280;6454;43.304;24.344;2023-02-22T09:27:03;100262.66;;;16.91;44.49
12781;BME280;6454;43.304;24.344;2023-02-22T09:29:31;100267.31;;;16.99;44.63
12781;BME280;6454;43.304;24.344;2023-02-22T09:31:58;100256.19;;;16.95;44.21
12781;BME280;6454;43.304;24.344;2023-02-22T09:34:26;100263.28;;;16.96;43.87
12781;BME280;6454;43.304;24.344;2023-02-22T09:36:54;100250.22;;;17.02;44.05
12781;BME280;6454;43.304;24.344;2023-02-22T09:39:22;100241.03;;;16.98;43.84
12781;BME280;6454;43.304;24.344;2023-02-22T09:41:55;100252.28;;;17.13;43.32
12781;BME280;6454;43.304;24.344;2023-02-22T09:44:31;100234.19;;;17.21;43.50
12781;BME280;6454;43.304;24.344;2023-02-22T09:47:03;100244.81;;;17.31;43.81
12781;BME280;6454;43.304;24.344;2023-02-22T09:49:39;100247.69;;;17.34;43.67
12781;BME280;6454;43.304;24.344;2023-02-22T09:52:16;100232.81;;;17.44;42.69
12781;BME280;6454;43.304;24.344;2023-02-22T09:54:46;100149.03;;;16.88;42.55
12781;BME280;6454;43.304;24.344;2023-02-22T09:57:22;100246.34;;;17.49;42.90
12781;BME280;6454;43.304;24.344;2023-02-22T09:59:58;100246.81;;;17.60;43.08
12781;BME280;6454;43.304;24.344;2023-02-22T10:02:39;100242.78;;;17.57;42.18
12781;BME280;6454;43.304;24.344;2023-02-22T10:05:14;100233.22;;;17.63;41.80
12781;BME280;6454;43.304;24.344;2023-02-22T10:07:47;100238.81;;;17.75;43.16
12781;BME280;6454;43.304;24.344;2023-02-22T10:10:18;100226.25;;;17.74;42.63
12781;BME280;6454;43.304;24.344;2023-02-22T10:12:52;100221.03;;;17.81;43.06
12781;BME280;6454;43.304;24.344;2023-02-22T10:15:41;100231.81;;;17.86;42.01
12781;BME280;6454;43.304;24.344;2023-02-22T10:21:24;100219.91;;;17.82;42.57
12781;BME280;6454;43.304;24.344;2023-02-22T10:23:58;100204.41;;;17.78;42.50
12781;BME280;6454;43.304;24.344;2023-02-22T10:26:33;100198.81;;;17.74;42.20
12781;BME280;6454;43.304;24.344;2023-02-22T10:29:04;100201.00;;;17.81;43.20
12781;BME280;6454;43.304;24.344;2023-02-22T10:31:37;100202.28;;;17.83;43.43
12781;BME280;6454;43.304;24.344;2023-02-22T10:34:13;100195.19;;;17.82;44.04
12781;BME280;6454;43.304;24.344;2023-02-22T10:36:42;100192.44;;;18.03;43.69
12781;BME280;6454;43.304;24.344;2023-02-22T10:39:18;100196.25;;;18.11;42.55
12781;BME280;6454;43.304;24.344;2023-02-22T10:41:49;100178.47;;;18.17;42.12
12781;BME280;6454;43.304;24.344;2023-02-22T10:44:17;100181.00;;;18.22;42.03
12781;BME280;6454;43.304;24.344;2023-02-22T10:46:44;100174.97;;;18.28;41.47
12781;BME280;6454;43.304;24.344;2023-02-22T10:49:18;100175.34;;;18.39;41.37
12781;BME280;6454;43.304;24.344;2023-02-22T10:51:58;100175.00;;;18.40;41.15
12781;BME280;6454;43.304;24.344;2023-02-22T10:54:30;100169.59;;;18.32;40.99
12781;BME280;6454;43.304;24.344;2023-02-22T10:56:59;100163.88;;;18.25;41.15
12781;BME280;6454;43.304;24.344;2023-02-22T10:59:30;100169.94;;;18.30;41.57
12781;BME280;6454;43.304;24.344;2023-02-22T11:01:59;100160.47;;;18.40;40.80
12781;BME280;6454;43.304;24.344;2023-02-22T11:04:27;100164.38;;;18.39;40.73
12781;BME280;6454;43.304;24.344;2023-02-22T11:07:15;100169.97;;;18.42;40.24
12781;BME280;6454;43.304;24.344;2023-02-22T11:09:49;100167.56;;;18.41;41.16
12781;BME280;6454;43.304;24.344;2023-02-22T11:12:19;100165.97;;;18.40;41.59
12781;BME280;6454;43.304;24.344;2023-02-22T11:14:46;100162.22;;;18.44;41.36
12781;BME280;6454;43.304;24.344;2023-02-22T11:17:25;100112.69;;;18.20;42.19
12781;BME280;6454;43.304;24.344;2023-02-22T11:19:54;100152.22;;;18.40;41.97
12781;BME280;6454;43.304;24.344;2023-02-22T11:22:25;100149.25;;;18.45;41.14
12781;BME280;6454;43.304;24.344;2023-02-22T11:24:55;100149.09;;;18.50;41.16
12781;BME280;6454;43.304;24.344;2023-02-22T11:27:30;100149.00;;;18.58;40.27
12781;BME280;6454;43.304;24.344;2023-02-22T11:30:16;100147.53;;;18.61;40.18
12781;BME280;6454;43.304;24.344;2023-02-22T11:32:47;100141.34;;;18.52;40.88
12781;BME280;6454;43.304;24.344;2023-02-22T11:35:29;100137.00;;;18.63;41.03
12781;BME280;6454;43.304;24.344;2023-02-22T11:38:12;100142.25;;;18.56;40.10
12781;BME280;6454;43.304;24.344;2023-02-22T11:40:41;100137.81;;;18.63;40.11
12781;BME280;6454;43.304;24.344;2023-02-22T11:43:14;100130.16;;;18.69;40.40
12781;BME280;6454;43.304;24.344;2023-02-22T11:45:56;100132.44;;;18.67;39.42
12781;BME280;6454;43.304;24.344;2023-02-22T11:48:26;100129.22;;;18.65;39.96
12781;BME280;6454;43.304;24.344;2023-02-22T11:51:00;100120.75;;;18.70;39.78
12781;BME280;6454;43.304;24.344;2023-02-22T11:53:47;100137.16;;;18.79;39.69
12781;BME280;6454;43.304;24.344;2023-02-22T11:56:21;100128.22;;;18.82;39.46
12781;BME280;6454;43.304;24.344;2023-02-22T11:58:58;100122.94;;;18.77;39.84
12781;BME280;6454;43.304;24.344;2023-02-22T12:01:34;100121.91;;;18.81;39.49
12781;BME280;6454;43.304;24.344;2023-02-22T12:07:09;100116.66;;;18.88;39.72
12781;BME280;6454;43.304;24.344;2023-02-22T12:09:48;100121.25;;;18.96;40.04
12781;BME280;6454;43.304;24.344;2023-02-22T12:12:22;100120.22;;;19.01;38.39
12781;BME280;6454;43.304;24.344;2023-02-22T12:14:57;100119.75;;;18.99;39.71
12781;BME280;6454;43.304;24.344;2023-02-22T12:17:34;100124.00;;;18.96;39.75
12781;BME280;6454;43.304;24.344;2023-02-22T12:20:11;100118.72;;;18.91;39.31
12781;BME280;6454;43.304;24.344;2023-02-22T12:22:46;100106.34;;;18.85;39.43
12781;BME280;6454;43.304;24.344;2023-02-22T12:25:21;100108.53;;;18.92;39.82
12781;BME280;6454;43.304;24.344;2023-02-22T12:27:51;100049.88;;;18.63;38.94
12781;BME280;6454;43.304;24.344;2023-02-22T12:30:21;100107.72;;;18.91;38.73
12781;BME280;6454;43.304;24.344;2023-02-22T12:32:51;100102.22;;;18.91;39.07
12781;BME280;6454;43.304;24.344;2023-02-22T12:35:21;100096.81;;;18.71;38.57
12781;BME280;6454;43.304;24.344;2023-02-22T12:37:58;100106.69;;;18.96;39.22
12781;BME280;6454;43.304;24.344;2023-02-22T12:40:34;100105.44;;;18.93;39.25
12781;BME280;6454;43.304;24.344;2023-02-22T12:43:09;100109.81;;;18.94;38.63
12781;BME280;6454;43.304;24.344;2023-02-22T12:45:45;100098.81;;;18.94;38.94
12781;BME280;6454;43.304;24.344;2023-02-22T12:48:31;100100.28;;;18.92;38.36
12781;BME280;6454;43.304;24.344;2023-02-22T12:51:10;100102.22;;;18.91;38.83
12781;BME280;6454;43.304;24.344;2023-02-22T12:53:40;100099.13;;;18.81;39.04
12781;BME280;6454;43.304;24.344;2023-02-22T12:56:18;100108.16;;;18.69;39.96
12781;BME280;6454;43.304;24.344;2023-02-22T12:58:52;100058.16;;;18.43;39.28
12781;BME280;6454;43.304;24.344;2023-02-22T13:01:23;100096.16;;;18.74;39.81
12781;BME280;6454;43.304;24.344;2023-02-22T13:03:53;100103.72;;;18.77;39.46
12781;BME280;6454;43.304;24.344;2023-02-22T13:09:20;100066.94;;;18.57;40.07
12781;BME280;6454;43.304;24.344;2023-02-22T13:11:58;100092.13;;;18.71;39.64
12781;BME280;6454;43.304;24.344;2023-02-22T13:14:36;100072.16;;;18.50;39.88
12781;BME280;6454;43.304;24.344;2023-02-22T13:17:08;100093.75;;;18.72;39.29
12781;BME280;6454;43.304;24.344;2023-02-22T13:19:43;100097.03;;;18.65;39.49